sensor_id;sensor_type;location;lat;lon;timestamp;P1;durP1;ratioP1;P2;durP2;ratioP2
8663;SDS011;4369;47.842;13.096;2024-01-25T00:01:20;7.80;;;2.40;;
8663;SDS011;4369;47.842;13.096;2024-01-25T00:03:47;6.17;;;2.20;;
8663;SDS011;4369;47.842;13.096;2024-01-25T00:06:14;7.93;;;2.00;;
8663;SDS011;4369;47.842;13.096;2024-01-25T00:08:41;5.67;;;2.10;;
8663;SDS011;4369;47.842;13.096;2024-01-25T00:11:09;3.63;;;1.97;;
8663;SDS011;4369;47.842;13.096;2024-01-25T00:13:36;4.73;;;2.13;;
8663;SDS011;4369;47.842;13.096;2024-01-25T00:16:04;5.67;;;2.13;;
8663;SDS011;4369;47.842;13.096;2024-01-25T00:18:31;4.53;;;1.70;;
8663;SDS011;4369;47.842;13.096;2024-01-25T00:20:58;3.27;;;2.10;;
8663;SDS011;4369;47.842;13.096;2024-01-25T00:23:25;5.37;;;1.90;;
8663;SDS011;4369;47.842;13.096;2024-01-25T00:25:52;4.27;;;2.00;;
8663;SDS011;4369;47.842;13.096;2024-01-25T00:28:24;4.87;;;2.10;;
8663;SDS011;4369;47.842;13.096;2024-01-25T00:30:51;6.03;;;2.60;;
8663;SDS011;4369;47.842;13.096;2024-01-25T00:33:18;5.73;;;2.37;;
8663;SDS011;4369;47.842;13.096;2024-01-25T00:35:45;8.07;;;2.63;;
8663;SDS011;4369;47.842;13.096;2024-01-25T00:38:13;7.17;;;2.40;;
8663;SDS011;4369;47.842;13.096;2024-01-25T00:40:41;10.03;;;2.70;;
8663;SDS011;4369;47.842;13.096;2024-01-25T00:43:08;10.53;;;2.73;;
8663;SDS011;4369;47.842;13.096;2024-01-25T00:45:37;7.53;;;2.20;;
8663;SDS011;4369;47.842;13.096;2024-01-25T00:48:05;6.63;;;2.20;;
8663;SDS011;4369;47.842;13.096;2024-01-25T00:50:33;7.07;;;2.47;;
8663;SDS011;4369;47.842;13.096;2024-01-25T00:53:00;9.97;;;2.70;;
8663;SDS011;4369;47.842;13.096;2024-01-25T00:55:28;9.20;;;2.30;;
8663;SDS011;4369;47.842;13.096;2024-01-25T00:57:55;10.80;;;2.93;;
8663;SDS011;4369;47.842;13.096;2024-01-25T01:00:25;6.83;;;2.60;;
8663;SDS011;4369;47.842;13.096;2024-01-25T01:02:54;4.67;;;2.30;;
8663;SDS011;4369;47.842;13.096;2024-01-25T01:05:23;11.90;;;2.73;;
8663;SDS011;4369;47.842;13.096;2024-01-25T01:07:51;7.00;;;2.70;;
8663;SDS011;4369;47.842;13.096;2024-01-25T01:10:19;13.03;;;2.90;;
8663;SDS011;4369;47.842;13.096;2024-01-25T01:12:46;7.40;;;2.83;;
8663;SDS011;4369;47.842;13.096;2024-01-25T01:15:12;9.37;;;2.50;;
8663;SDS011;4369;47.842;13.096;2024-01-25T01:17:39;8.13;;;3.13;;
8663;SDS011;4369;47.842;13.096;2024-01-25T01:20:08;8.73;;;2.57;;
8663;SDS011;4369;47.842;13.096;2024-01-25T01:22:36;10.03;;;2.73;;
8663;SDS011;4369;47.842;13.096;2024-01-25T01:25:03;8.20;;;2.53;;
8663;SDS011;4369;47.842;13.096;2024-01-25T01:27:31;7.47;;;2.30;;
8663;SDS011;4369;47.842;13.096;2024-01-25T01:29:58;6.43;;;2.57;;
8663;SDS011;4369;47.842;13.096;2024-01-25T01:32:25;7.97;;;2.30;;
8663;SDS011;4369;47.842;13.096;2024-01-25T01:34:52;9.47;;;2.63;;
8663;SDS011;4369;47.842;13.096;2024-01-25T01:37:20;12.17;;;3.10;;
8663;SDS011;4369;47.842;13.096;2024-01-25T01:39:47;10.20;;;3.13;;
8663;SDS011;4369;47.842;13.096;2024-01-25T01:42:14;6.90;;;2.93;;
8663;SDS011;4369;47.842;13.096;2024-01-25T01:44:41;8.63;;;2.80;;
8663;SDS011;4369;47.842;13.096;2024-01-25T01:47:08;5.83;;;2.50;;
8663;SDS011;4369;47.842;13.096;2024-01-25T01:49:35;6.27;;;2.60;;
8663;SDS011;4369;47.842;13.096;2024-01-25T01:52:02;7.10;;;3.03;;
8663;SDS011;4369;47.842;13.096;2024-01-25T01:54:31;10.93;;;3.20;;
8663;SDS011;4369;47.842;13.096;2024-01-25T01:56:58;8.83;;;2.80;;
8663;SDS011;4369;47.842;13.096;2024-01-25T01:59:25;8.93;;;2.57;;
8663;SDS011;4369;47.842;13.096;2024-01-25T02:01:54;14.20;;;3.37;;
8663;SDS011;4369;47.842;13.096;2024-01-25T02:04:21;5.53;;;2.70;;
8663;SDS011;4369;47.842;13.096;2024-01-25T02:06:48;9.57;;;2.57;;
8663;SDS011;4369;47.842;13.096;2024-01-25T02:09:15;7.60;;;2.70;;
8663;SDS011;4369;47.842;13.096;2024-01-25T02:11:43;7.47;;;2.70;;
8663;SDS011;4369;47.842;13.096;2024-01-25T02:14:10;10.90;;;2.83;;
8663;SDS011;4369;47.842;13.096;2024-01-25T02:16:38;8.33;;;2.87;;
8663;SDS011;4369;47.842;13.096;2024-01-25T02:19:05;6.17;;;2.67;;
8663;SDS011;4369;47.842;13.096;2024-01-25T02:21:32;13.23;;;3.17;;
8663;SDS011;4369;47.842;13.096;2024-01-25T02:24:00;8.10;;;2.93;;
8663;SDS011;4369;47.842;13.096;2024-01-25T02:26:27;9.50;;;3.10;;
8663;SDS011;4369;47.842;13.096;2024-01-25T02:28:54;10.97;;;3.07;;
8663;SDS011;4369;47.842;13.096;2024-01-25T02:31:21;9.90;;;3.37;;
8663;SDS011;4369;47.842;13.096;2024-01-25T02:33:48;7.77;;;2.93;;
8663;SDS011;4369;47.842;13.096;2024-01-25T02:36:15;7.03;;;3.00;;
8663;SDS011;4369;47.842;13.096;2024-01-25T02:38:41;8.63;;;2.90;;
8663;SDS011;4369;47.842;13.096;2024-01-25T02:41:10;11.63;;;3.37;;
8663;SDS011;4369;47.842;13.096;2024-01-25T02:43:37;5.87;;;2.53;;
8663;SDS011;4369;47.842;13.096;2024-01-25T02:46:04;12.17;;;3.40;;
8663;SDS011;4369;47.842;13.096;2024-01-25T02:48:31;7.57;;;3.17;;
8663;SDS011;4369;47.842;13.096;2024-01-25T02:50:58;10.47;;;2.80;;
8663;SDS011;4369;47.842;13.096;2024-01-25T02:53:25;9.20;;;3.60;;
8663;SDS011;4369;47.842;13.096;2024-01-25T02:55:52;9.43;;;2.80;;
8663;SDS011;4369;47.842;13.096;2024-01-25T02:58:20;11.90;;;3.40;;
8663;SDS011;4369;47.842;13.096;2024-01-25T03:00:47;8.27;;;2.97;;
8663;SDS011;4369;47.842;13.096;2024-01-25T03:03:14;8.60;;;3.00;;
8663;SDS011;4369;47.842;13.096;2024-01-25T03:05:41;9.67;;;2.63;;
8663;SDS011;4369;47.842;13.096;2024-01-25T03:08:08;11.57;;;2.97;;
8663;SDS011;4369;47.842;13.096;2024-01-25T03:10:35;12.30;;;3.00;;
8663;SDS011;4369;47.842;13.096;2024-01-25T03:13:02;8.20;;;3.30;;
8663;SDS011;4369;47.842;13.096;2024-01-25T03:15:31;10.40;;;3.17;;
8663;SDS011;4369;47.842;13.096;2024-01-25T03:17:58;10.90;;;3.23;;
8663;SDS011;4369;47.842;13.096;2024-01-25T03:20:25;9.13;;;2.97;;
8663;SDS011;4369;47.842;13.096;2024-01-25T03:22:52;11.43;;;3.03;;
8663;SDS011;4369;47.842;13.096;2024-01-25T03:25:19;9.07;;;2.97;;
8663;SDS011;4369;47.842;13.096;2024-01-25T03:27:46;8.20;;;3.07;;
8663;SDS011;4369;47.842;13.096;2024-01-25T03:30:13;12.60;;;3.00;;
8663;SDS011;4369;47.842;13.096;2024-01-25T03:32:42;12.80;;;3.33;;
8663;SDS011;4369;47.842;13.096;2024-01-25T03:35:09;10.23;;;3.17;;
8663;SDS011;4369;47.842;13.096;2024-01-25T03:37:35;10.73;;;3.13;;
8663;SDS011;4369;47.842;13.096;2024-01-25T03:40:02;11.00;;;3.23;;
8663;SDS011;4369;47.842;13.096;2024-01-25T03:42:30;11.53;;;3.30;;
8663;SDS011;4369;47.842;13.096;2024-01-25T03:44:57;10.10;;;2.80;;
8663;SDS011;4369;47.842;13.096;2024-01-25T03:47:22;12.27;;;2.80;;
8663;SDS011;4369;47.842;13.096;2024-01-25T03:49:51;8.50;;;2.77;;
8663;SDS011;4369;47.842;13.096;2024-01-25T03:52:18;10.87;;;2.73;;
8663;SDS011;4369;47.842;13.096;2024-01-25T03:54:45;7.53;;;2.53;;
8663;SDS011;4369;47.842;13.096;2024-01-25T03:57:12;7.87;;;2.83;;
8663;SDS011;4369;47.842;13.096;2024-01-25T03:59:38;9.27;;;2.40;;
8663;SDS011;4369;47.842;13.096;2024-01-25T04:02:05;6.23;;;2.20;;
8663;SDS011;4369;47.842;13.096;2024-01-25T04:04:33;12.70;;;2.60;;
8663;SDS011;4369;47.842;13.096;2024-01-25T04:07:01;7.83;;;2.93;;
8663;SDS011;4369;47.842;13.096;2024-01-25T04:09:28;9.07;;;2.83;;
8663;SDS011;4369;47.842;13.096;2024-01-25T04:11:55;6.93;;;2.50;;
8663;SDS011;4369;47.842;13.096;2024-01-25T04:14:23;4.57;;;1.97;;
8663;SDS011;4369;47.842;13.096;2024-01-25T04:16:50;6.90;;;2.70;;
8663;SDS011;4369;47.842;13.096;2024-01-25T04:19:17;11.03;;;2.47;;
8663;SDS011;4369;47.842;13.096;2024-01-25T04:21:44;8.57;;;2.50;;
8663;SDS011;4369;47.842;13.096;2024-01-25T04:24:13;7.97;;;2.73;;
8663;SDS011;4369;47.842;13.096;2024-01-25T04:26:40;8.07;;;2.60;;
8663;SDS011;4369;47.842;13.096;2024-01-25T04:29:06;9.93;;;2.80;;
8663;SDS011;4369;47.842;13.096;2024-01-25T04:31:33;8.33;;;2.80;;
8663;SDS011;4369;47.842;13.096;2024-01-25T04:34:00;5.77;;;2.27;;
8663;SDS011;4369;47.842;13.096;2024-01-25T04:36:27;6.17;;;2.40;;
8663;SDS011;4369;47.842;13.096;2024-01-25T04:38:54;8.93;;;2.27;;
8663;SDS011;4369;47.842;13.096;2024-01-25T04:41:22;6.93;;;2.40;;
8663;SDS011;4369;47.842;13.096;2024-01-25T04:43:49;8.43;;;2.50;;
8663;SDS011;4369;47.842;13.096;2024-01-25T04:46:16;7.00;;;2.17;;
8663;SDS011;4369;47.842;13.096;2024-01-25T04:48:43;6.73;;;2.40;;
8663;SDS011;4369;47.842;13.096;2024-01-25T04:51:14;5.53;;;2.40;;
8663;SDS011;4369;47.842;13.096;2024-01-25T04:53:41;5.63;;;2.27;;
8663;SDS011;4369;47.842;13.096;2024-01-25T04:56:08;5.20;;;2.03;;
8663;SDS011;4369;47.842;13.096;2024-01-25T04:58:37;8.23;;;2.37;;
8663;SDS011;4369;47.842;13.096;2024-01-25T05:01:04;5.23;;;2.40;;
8663;SDS011;4369;47.842;13.096;2024-01-25T05:03:32;3.83;;;1.73;;
8663;SDS011;4369;47.842;13.096;2024-01-25T05:05:59;3.90;;;1.67;;
8663;SDS011;4369;47.842;13.096;2024-01-25T05:08:26;6.43;;;1.93;;
8663;SDS011;4369;47.842;13.096;2024-01-25T05:10:53;5.33;;;1.77;;
8663;SDS011;4369;47.842;13.096;2024-01-25T05:13:20;4.87;;;1.90;;
8663;SDS011;4369;47.842;13.096;2024-01-25T05:15:48;5.87;;;2.00;;
8663;SDS011;4369;47.842;13.096;2024-01-25T05:18:15;7.80;;;2.17;;
8663;SDS011;4369;47.842;13.096;2024-01-25T05:20:42;5.33;;;1.90;;
8663;SDS011;4369;47.842;13.096;2024-01-25T05:23:09;2.80;;;1.47;;
8663;SDS011;4369;47.842;13.096;2024-01-25T05:25:36;4.97;;;2.13;;
8663;SDS011;4369;47.842;13.096;2024-01-25T05:28:03;5.30;;;2.30;;
8663;SDS011;4369;47.842;13.096;2024-01-25T05:30:30;4.77;;;1.77;;
8663;SDS011;4369;47.842;13.096;2024-01-25T05:32:59;4.50;;;1.60;;
8663;SDS011;4369;47.842;13.096;2024-01-25T05:35:26;5.17;;;1.80;;
8663;SDS011;4369;47.842;13.096;2024-01-25T05:37:53;9.37;;;2.43;;
8663;SDS011;4369;47.842;13.096;2024-01-25T05:40:20;7.13;;;1.80;;
8663;SDS011;4369;47.842;13.096;2024-01-25T05:42:47;6.97;;;2.33;;
8663;SDS011;4369;47.842;13.096;2024-01-25T05:45:14;5.43;;;2.10;;
8663;SDS011;4369;47.842;13.096;2024-01-25T05:47:41;6.40;;;2.40;;
8663;SDS011;4369;47.842;13.096;2024-01-25T05:50:09;5.27;;;1.70;;
8663;SDS011;4369;47.842;13.096;2024-01-25T05:52:37;5.20;;;2.07;;
8663;SDS011;4369;47.842;13.096;2024-01-25T05:55:04;5.67;;;2.30;;
8663;SDS011;4369;47.842;13.096;2024-01-25T05:57:31;6.50;;;1.83;;
8663;SDS011;4369;47.842;13.096;2024-01-25T05:59:59;5.03;;;2.37;;
8663;SDS011;4369;47.842;13.096;2024-01-25T06:02:26;8.93;;;2.77;;
8663;SDS011;4369;47.842;13.096;2024-01-25T06:04:53;5.73;;;1.77;;
8663;SDS011;4369;47.842;13.096;2024-01-25T06:07:24;9.17;;;2.20;;
8663;SDS011;4369;47.842;13.096;2024-01-25T06:09:51;8.87;;;2.60;;
8663;SDS011;4369;47.842;13.096;2024-01-25T06:12:18;9.40;;;2.50;;
8663;SDS011;4369;47.842;13.096;2024-01-25T06:14:45;11.20;;;3.20;;
8663;SDS011;4369;47.842;13.096;2024-01-25T06:17:12;6.60;;;2.90;;
8663;SDS011;4369;47.842;13.096;2024-01-25T06:19:39;6.87;;;2.40;;
8663;SDS011;4369;47.842;13.096;2024-01-25T06:22:06;5.20;;;2.03;;
8663;SDS011;4369;47.842;13.096;2024-01-25T06:24:34;8.43;;;2.10;;
8663;SDS011;4369;47.842;13.096;2024-01-25T06:27:01;9.80;;;3.03;;
8663;SDS011;4369;47.842;13.096;2024-01-25T06:29:28;6.83;;;2.30;;
8663;SDS011;4369;47.842;13.096;2024-01-25T06:31:55;9.37;;;2.57;;
8663;SDS011;4369;47.842;13.096;2024-01-25T06:34:22;8.50;;;2.30;;
8663;SDS011;4369;47.842;13.096;2024-01-25T06:36:49;9.63;;;2.70;;
8663;SDS011;4369;47.842;13.096;2024-01-25T06:39:16;6.33;;;2.33;;
8663;SDS011;4369;47.842;13.096;2024-01-25T06:41:45;7.83;;;2.20;;
8663;SDS011;4369;47.842;13.096;2024-01-25T06:44:11;8.43;;;2.40;;
8663;SDS011;4369;47.842;13.096;2024-01-25T06:46:38;9.33;;;2.40;;
8663;SDS011;4369;47.842;13.096;2024-01-25T06:49:05;9.53;;;2.63;;
8663;SDS011;4369;47.842;13.096;2024-01-25T06:51:32;8.63;;;2.60;;
8663;SDS011;4369;47.842;13.096;2024-01-25T06:53:59;6.43;;;2.30;;
8663;SDS011;4369;47.842;13.096;2024-01-25T06:56:26;8.37;;;2.60;;
8663;SDS011;4369;47.842;13.096;2024-01-25T06:58:54;10.37;;;2.93;;
8663;SDS011;4369;47.842;13.096;2024-01-25T07:01:21;6.13;;;2.77;;
8663;SDS011;4369;47.842;13.096;2024-01-25T07:03:49;12.80;;;2.80;;
8663;SDS011;4369;47.842;13.096;2024-01-25T07:06:16;13.33;;;3.10;;
8663;SDS011;4369;47.842;13.096;2024-01-25T07:08:44;9.37;;;2.80;;
8663;SDS011;4369;47.842;13.096;2024-01-25T07:11:11;9.53;;;2.87;;
8663;SDS011;4369;47.842;13.096;2024-01-25T07:13:37;11.07;;;3.30;;
8663;SDS011;4369;47.842;13.096;2024-01-25T07:16:08;9.27;;;3.07;;
8663;SDS011;4369;47.842;13.096;2024-01-25T07:18:35;10.90;;;2.77;;
8663;SDS011;4369;47.842;13.096;2024-01-25T07:21:02;13.67;;;3.53;;
8663;SDS011;4369;47.842;13.096;2024-01-25T07:23:29;9.17;;;3.60;;
8663;SDS011;4369;47.842;13.096;2024-01-25T07:25:56;10.47;;;3.47;;
8663;SDS011;4369;47.842;13.096;2024-01-25T07:28:23;9.27;;;3.47;;
8663;SDS011;4369;47.842;13.096;2024-01-25T07:30:50;16.50;;;5.43;;
8663;SDS011;4369;47.842;13.096;2024-01-25T07:33:18;9.27;;;3.47;;
8663;SDS011;4369;47.842;13.096;2024-01-25T07:35:45;10.17;;;4.10;;
8663;SDS011;4369;47.842;13.096;2024-01-25T07:38:13;9.33;;;3.63;;
8663;SDS011;4369;47.842;13.096;2024-01-25T07:40:40;11.37;;;4.03;;
8663;SDS011;4369;47.842;13.096;2024-01-25T07:43:07;8.43;;;3.57;;
8663;SDS011;4369;47.842;13.096;2024-01-25T07:45:34;8.40;;;3.50;;
8663;SDS011;4369;47.842;13.096;2024-01-25T07:48:01;15.13;;;3.70;;
8663;SDS011;4369;47.842;13.096;2024-01-25T07:50:30;14.30;;;4.53;;
8663;SDS011;4369;47.842;13.096;2024-01-25T07:52:57;9.43;;;3.67;;
8663;SDS011;4369;47.842;13.096;2024-01-25T07:55:26;11.77;;;3.77;;
8663;SDS011;4369;47.842;13.096;2024-01-25T07:57:54;10.80;;;3.47;;
8663;SDS011;4369;47.842;13.096;2024-01-25T08:00:21;15.93;;;4.80;;
8663;SDS011;4369;47.842;13.096;2024-01-25T08:02:48;13.47;;;4.17;;
8663;SDS011;4369;47.842;13.096;2024-01-25T08:05:15;10.97;;;3.83;;
8663;SDS011;4369;47.842;13.096;2024-01-25T08:07:44;10.77;;;3.50;;
8663;SDS011;4369;47.842;13.096;2024-01-25T08:10:11;10.63;;;3.60;;
8663;SDS011;4369;47.842;13.096;2024-01-25T08:12:38;13.60;;;3.80;;
8663;SDS011;4369;47.842;13.096;2024-01-25T08:15:09;8.57;;;3.67;;
8663;SDS011;4369;47.842;13.096;2024-01-25T08:17:36;8.50;;;3.80;;
8663;SDS011;4369;47.842;13.096;2024-01-25T08:20:04;11.17;;;3.87;;
8663;SDS011;4369;47.842;13.096;2024-01-25T08:22:33;10.88;;;4.00;;
8663;SDS011;4369;47.842;13.096;2024-01-25T08:25:02;14.00;;;3.83;;
8663;SDS011;4369;47.842;13.096;2024-01-25T08:27:30;13.30;;;3.30;;
8663;SDS011;4369;47.842;13.096;2024-01-25T08:29:56;11.63;;;4.00;;
8663;SDS011;4369;47.842;13.096;2024-01-25T08:32:23;7.47;;;3.00;;
8663;SDS011;4369;47.842;13.096;2024-01-25T08:34:50;10.87;;;3.17;;
8663;SDS011;4369;47.842;13.096;2024-01-25T08:37:17;12.00;;;3.50;;
8663;SDS011;4369;47.842;13.096;2024-01-25T08:39:44;10.67;;;3.07;;
8663;SDS011;4369;47.842;13.096;2024-01-25T08:42:17;8.90;;;3.30;;
8663;SDS011;4369;47.842;13.096;2024-01-25T08:44:45;10.27;;;3.50;;
8663;SDS011;4369;47.842;13.096;2024-01-25T08:47:14;5.57;;;2.77;;
8663;SDS011;4369;47.842;13.096;2024-01-25T08:49:41;15.83;;;4.07;;
8663;SDS011;4369;47.842;13.096;2024-01-25T08:52:08;8.33;;;3.23;;
8663;SDS011;4369;47.842;13.096;2024-01-25T08:54:35;9.23;;;3.40;;
8663;SDS011;4369;47.842;13.096;2024-01-25T08:57:03;8.83;;;3.33;;
8663;SDS011;4369;47.842;13.096;2024-01-25T08:59:33;11.77;;;3.23;;
8663;SDS011;4369;47.842;13.096;2024-01-25T09:02:03;9.10;;;2.90;;
8663;SDS011;4369;47.842;13.096;2024-01-25T09:04:30;11.53;;;3.67;;
8663;SDS011;4369;47.842;13.096;2024-01-25T09:06:58;10.37;;;2.93;;
8663;SDS011;4369;47.842;13.096;2024-01-25T09:09:25;10.50;;;3.23;;
8663;SDS011;4369;47.842;13.096;2024-01-25T09:11:52;10.43;;;3.23;;
8663;SDS011;4369;47.842;13.096;2024-01-25T09:14:19;9.47;;;3.57;;
8663;SDS011;4369;47.842;13.096;2024-01-25T09:16:48;13.70;;;3.33;;
8663;SDS011;4369;47.842;13.096;2024-01-25T09:19:16;13.17;;;3.90;;
8663;SDS011;4369;47.842;13.096;2024-01-25T09:21:43;10.17;;;4.03;;
8663;SDS011;4369;47.842;13.096;2024-01-25T09:24:10;11.03;;;4.23;;
8663;SDS011;4369;47.842;13.096;2024-01-25T09:26:37;12.13;;;4.83;;
8663;SDS011;4369;47.842;13.096;2024-01-25T09:29:03;10.30;;;4.20;;
8663;SDS011;4369;47.842;13.096;2024-01-25T09:31:31;14.03;;;4.37;;
8663;SDS011;4369;47.842;13.096;2024-01-25T09:33:59;9.87;;;3.77;;
8663;SDS011;4369;47.842;13.096;2024-01-25T09:36:26;14.23;;;3.83;;
8663;SDS011;4369;47.842;13.096;2024-01-25T09:38:53;12.00;;;4.07;;
8663;SDS011;4369;47.842;13.096;2024-01-25T09:41:20;12.40;;;4.00;;
8663;SDS011;4369;47.842;13.096;2024-01-25T09:43:47;7.10;;;3.53;;
8663;SDS011;4369;47.842;13.096;2024-01-25T09:46:14;9.00;;;3.57;;
8663;SDS011;4369;47.842;13.096;2024-01-25T09:48:41;9.70;;;3.30;;
8663;SDS011;4369;47.842;13.096;2024-01-25T09:51:14;9.43;;;3.37;;
8663;SDS011;4369;47.842;13.096;2024-01-25T09:53:41;11.27;;;4.27;;
8663;SDS011;4369;47.842;13.096;2024-01-25T09:56:09;11.07;;;3.93;;
8663;SDS011;4369;47.842;13.096;2024-01-25T09:58:37;9.30;;;2.90;;
8663;SDS011;4369;47.842;13.096;2024-01-25T10:01:07;8.10;;;3.40;;
8663;SDS011;4369;47.842;13.096;2024-01-25T10:03:35;9.57;;;3.60;;
8663;SDS011;4369;47.842;13.096;2024-01-25T10:06:02;9.33;;;3.57;;
8663;SDS011;4369;47.842;13.096;2024-01-25T10:08:31;10.60;;;3.30;;
8663;SDS011;4369;47.842;13.096;2024-01-25T10:10:58;11.37;;;3.50;;
8663;SDS011;4369;47.842;13.096;2024-01-25T10:13:25;6.93;;;3.30;;
8663;SDS011;4369;47.842;13.096;2024-01-25T10:15:53;12.53;;;3.20;;
8663;SDS011;4369;47.842;13.096;2024-01-25T10:18:21;11.17;;;3.30;;
8663;SDS011;4369;47.842;13.096;2024-01-25T10:20:49;8.70;;;3.30;;
8663;SDS011;4369;47.842;13.096;2024-01-25T10:23:16;12.03;;;3.40;;
8663;SDS011;4369;47.842;13.096;2024-01-25T10:25:44;9.67;;;3.57;;
8663;SDS011;4369;47.842;13.096;2024-01-25T10:28:11;10.03;;;3.53;;
8663;SDS011;4369;47.842;13.096;2024-01-25T10:30:38;12.70;;;3.60;;
8663;SDS011;4369;47.842;13.096;2024-01-25T10:33:05;11.93;;;2.87;;
8663;SDS011;4369;47.842;13.096;2024-01-25T10:35:35;10.53;;;3.77;;
8663;SDS011;4369;47.842;13.096;2024-01-25T10:38:03;8.80;;;3.67;;
8663;SDS011;4369;47.842;13.096;2024-01-25T10:40:31;8.43;;;3.30;;
8663;SDS011;4369;47.842;13.096;2024-01-25T10:42:59;11.70;;;3.27;;
8663;SDS011;4369;47.842;13.096;2024-01-25T10:45:26;9.87;;;3.87;;
8663;SDS011;4369;47.842;13.096;2024-01-25T10:47:53;10.10;;;3.77;;
8663;SDS011;4369;47.842;13.096;2024-01-25T10:50:20;12.93;;;3.70;;
8663;SDS011;4369;47.842;13.096;2024-01-25T10:52:49;10.27;;;3.70;;
8663;SDS011;4369;47.842;13.096;2024-01-25T10:55:17;12.13;;;3.73;;
8663;SDS011;4369;47.842;13.096;2024-01-25T10:57:44;11.77;;;4.13;;
8663;SDS011;4369;47.842;13.096;2024-01-25T11:00:14;14.30;;;3.83;;
8663;SDS011;4369;47.842;13.096;2024-01-25T11:02:42;16.03;;;4.67;;
8663;SDS011;4369;47.842;13.096;2024-01-25T11:05:10;9.27;;;3.33;;
8663;SDS011;4369;47.842;13.096;2024-01-25T11:07:42;15.13;;;4.30;;
8663;SDS011;4369;47.842;13.096;2024-01-25T11:10:13;13.37;;;3.50;;
8663;SDS011;4369;47.842;13.096;2024-01-25T11:12:48;10.40;;;3.63;;
8663;SDS011;4369;47.842;13.096;2024-01-25T11:15:23;13.57;;;4.33;;
8663;SDS011;4369;47.842;13.096;2024-01-25T11:17:56;14.77;;;4.57;;
8663;SDS011;4369;47.842;13.096;2024-01-25T11:20:23;14.57;;;4.47;;
8663;SDS011;4369;47.842;13.096;2024-01-25T11:22:55;9.10;;;3.90;;
8663;SDS011;4369;47.842;13.096;2024-01-25T11:25:23;11.47;;;3.60;;
8663;SDS011;4369;47.842;13.096;2024-01-25T11:27:52;12.43;;;4.03;;
8663;SDS011;4369;47.842;13.096;2024-01-25T11:30:20;12.00;;;4.13;;
8663;SDS011;4369;47.842;13.096;2024-01-25T11:32:49;13.40;;;3.63;;
8663;SDS011;4369;47.842;13.096;2024-01-25T11:35:16;10.37;;;2.90;;
8663;SDS011;4369;47.842;13.096;2024-01-25T11:37:43;10.23;;;3.40;;
8663;SDS011;4369;47.842;13.096;2024-01-25T11:40:11;10.30;;;3.40;;
8663;SDS011;4369;47.842;13.096;2024-01-25T11:42:39;12.47;;;3.20;;
8663;SDS011;4369;47.842;13.096;2024-01-25T11:45:08;9.97;;;3.57;;
8663;SDS011;4369;47.842;13.096;2024-01-25T11:47:38;12.60;;;4.80;;
8663;SDS011;4369;47.842;13.096;2024-01-25T11:50:06;9.67;;;3.47;;
8663;SDS011;4369;47.842;13.096;2024-01-25T11:52:35;12.30;;;3.13;;
8663;SDS011;4369;47.842;13.096;2024-01-25T11:55:02;7.63;;;2.80;;
8663;SDS011;4369;47.842;13.096;2024-01-25T11:57:30;12.23;;;3.40;;
8663;SDS011;4369;47.842;13.096;2024-01-25T11:59:58;16.33;;;4.27;;
8663;SDS011;4369;47.842;13.096;2024-01-25T12:02:26;9.60;;;3.03;;
8663;SDS011;4369;47.842;13.096;2024-01-25T12:04:55;11.90;;;3.13;;
8663;SDS011;4369;47.842;13.096;2024-01-25T12:07:23;10.47;;;3.27;;
8663;SDS011;4369;47.842;13.096;2024-01-25T12:12:36;7.93;;;2.87;;
8663;SDS011;4369;47.842;13.096;2024-01-25T12:15:04;6.43;;;2.70;;
8663;SDS011;4369;47.842;13.096;2024-01-25T12:17:33;8.33;;;2.87;;
8663;SDS011;4369;47.842;13.096;2024-01-25T12:20:05;9.90;;;2.77;;
8663;SDS011;4369;47.842;13.096;2024-01-25T12:22:36;7.30;;;2.43;;
8663;SDS011;4369;47.842;13.096;2024-01-25T12:25:06;6.87;;;2.40;;
8663;SDS011;4369;47.842;13.096;2024-01-25T12:27:34;9.93;;;2.73;;
8663;SDS011;4369;47.842;13.096;2024-01-25T12:30:02;4.73;;;2.00;;
8663;SDS011;4369;47.842;13.096;2024-01-25T12:32:30;4.93;;;2.30;;
8663;SDS011;4369;47.842;13.096;2024-01-25T12:34:58;8.07;;;2.67;;
8663;SDS011;4369;47.842;13.096;2024-01-25T12:37:28;10.00;;;2.60;;
8663;SDS011;4369;47.842;13.096;2024-01-25T12:39:55;9.73;;;3.00;;
8663;SDS011;4369;47.842;13.096;2024-01-25T12:42:22;8.00;;;2.63;;
8663;SDS011;4369;47.842;13.096;2024-01-25T12:44:52;7.33;;;2.47;;
8663;SDS011;4369;47.842;13.096;2024-01-25T12:47:19;7.80;;;2.67;;
8663;SDS011;4369;47.842;13.096;2024-01-25T12:49:47;8.60;;;2.70;;
8663;SDS011;4369;47.842;13.096;2024-01-25T12:52:14;10.23;;;2.80;;
8663;SDS011;4369;47.842;13.096;2024-01-25T12:54:43;9.20;;;3.13;;
8663;SDS011;4369;47.842;13.096;2024-01-25T12:57:10;12.03;;;3.13;;
8663;SDS011;4369;47.842;13.096;2024-01-25T12:59:37;9.33;;;2.60;;
8663;SDS011;4369;47.842;13.096;2024-01-25T13:02:04;10.57;;;2.90;;
8663;SDS011;4369;47.842;13.096;2024-01-25T13:04:33;9.20;;;2.73;;
8663;SDS011;4369;47.842;13.096;2024-01-25T13:07:00;9.33;;;3.10;;
8663;SDS011;4369;47.842;13.096;2024-01-25T13:09:27;14.20;;;3.63;;
8663;SDS011;4369;47.842;13.096;2024-01-25T13:11:59;7.97;;;2.90;;
8663;SDS011;4369;47.842;13.096;2024-01-25T13:14:27;9.63;;;3.03;;
8663;SDS011;4369;47.842;13.096;2024-01-25T13:16:54;11.23;;;3.23;;
8663;SDS011;4369;47.842;13.096;2024-01-25T13:19:21;6.27;;;3.03;;
8663;SDS011;4369;47.842;13.096;2024-01-25T13:21:48;15.00;;;3.27;;
8663;SDS011;4369;47.842;13.096;2024-01-25T13:24:15;7.60;;;2.60;;
8663;SDS011;4369;47.842;13.096;2024-01-25T13:26:42;13.37;;;3.60;;
8663;SDS011;4369;47.842;13.096;2024-01-25T13:29:10;9.00;;;2.97;;
8663;SDS011;4369;47.842;13.096;2024-01-25T13:31:38;21.67;;;4.73;;
8663;SDS011;4369;47.842;13.096;2024-01-25T13:34:05;8.23;;;2.67;;
8663;SDS011;4369;47.842;13.096;2024-01-25T13:36:32;11.90;;;2.70;;
8663;SDS011;4369;47.842;13.096;2024-01-25T13:38:59;6.60;;;3.23;;
8663;SDS011;4369;47.842;13.096;2024-01-25T13:41:26;11.23;;;3.50;;
8663;SDS011;4369;47.842;13.096;2024-01-25T13:43:53;15.27;;;3.90;;
8663;SDS011;4369;47.842;13.096;2024-01-25T13:46:21;8.97;;;3.57;;
8663;SDS011;4369;47.842;13.096;2024-01-25T13:48:48;13.33;;;3.30;;
8663;SDS011;4369;47.842;13.096;2024-01-25T13:51:15;13.10;;;3.33;;
8663;SDS011;4369;47.842;13.096;2024-01-25T13:53:42;7.93;;;2.70;;
8663;SDS011;4369;47.842;13.096;2024-01-25T13:56:09;7.23;;;2.33;;
8663;SDS011;4369;47.842;13.096;2024-01-25T13:58:36;7.80;;;2.80;;
8663;SDS011;4369;47.842;13.096;2024-01-25T14:01:03;8.80;;;2.97;;
8663;SDS011;4369;47.842;13.096;2024-01-25T14:03:32;11.27;;;3.00;;
8663;SDS011;4369;47.842;13.096;2024-01-25T14:05:59;8.70;;;2.90;;
8663;SDS011;4369;47.842;13.096;2024-01-25T14:08:29;8.30;;;2.60;;
8663;SDS011;4369;47.842;13.096;2024-01-25T14:10:56;24.93;;;9.17;;
8663;SDS011;4369;47.842;13.096;2024-01-25T14:13:23;15.97;;;3.67;;
8663;SDS011;4369;47.842;13.096;2024-01-25T14:15:50;9.30;;;2.80;;
8663;SDS011;4369;47.842;13.096;2024-01-25T14:18:17;10.53;;;2.80;;
8663;SDS011;4369;47.842;13.096;2024-01-25T14:20:45;7.97;;;2.63;;
8663;SDS011;4369;47.842;13.096;2024-01-25T14:23:12;8.63;;;2.60;;
8663;SDS011;4369;47.842;13.096;2024-01-25T14:25:40;5.80;;;2.33;;
8663;SDS011;4369;47.842;13.096;2024-01-25T14:28:07;7.87;;;2.77;;
8663;SDS011;4369;47.842;13.096;2024-01-25T14:30:34;6.07;;;2.20;;
8663;SDS011;4369;47.842;13.096;2024-01-25T14:33:01;10.70;;;2.97;;
8663;SDS011;4369;47.842;13.096;2024-01-25T14:35:28;7.47;;;2.60;;
8663;SDS011;4369;47.842;13.096;2024-01-25T14:37:57;7.83;;;2.60;;
8663;SDS011;4369;47.842;13.096;2024-01-25T14:40:24;6.30;;;2.30;;
8663;SDS011;4369;47.842;13.096;2024-01-25T14:42:51;8.60;;;2.40;;
8663;SDS011;4369;47.842;13.096;2024-01-25T14:45:18;7.67;;;2.53;;
8663;SDS011;4369;47.842;13.096;2024-01-25T14:47:45;8.20;;;2.70;;
8663;SDS011;4369;47.842;13.096;2024-01-25T14:50:12;10.43;;;2.90;;
8663;SDS011;4369;47.842;13.096;2024-01-25T14:52:39;7.07;;;2.60;;
8663;SDS011;4369;47.842;13.096;2024-01-25T14:55:08;9.83;;;2.80;;
8663;SDS011;4369;47.842;13.096;2024-01-25T14:57:35;5.33;;;2.70;;
8663;SDS011;4369;47.842;13.096;2024-01-25T15:00:02;12.20;;;3.30;;